createdAt,value
2019-01-23T00:02:34.719Z,23.40
2019-01-23T00:07:42.616Z,23.17
2019-01-23T00:12:49.143Z,23.03
2019-01-23T00:17:55.142Z,22.67
2019-01-23T00:23:01.878Z,23.23
2019-01-23T00:28:07.477Z,23.60
2019-01-23T00:33:13.955Z,24.33
2019-01-23T00:38:20.420Z,22.93
2019-01-23T00:43:26.792Z,23.20
2019-01-23T00:48:34.182Z,22.50
2019-01-23T00:53:41.185Z,23.77
2019-01-23T00:58:49.253Z,24.97
2019-01-23T01:03:56.048Z,23.07
2019-01-23T01:09:01.745Z,23.50
2019-01-23T01:14:07.815Z,24.37
2019-01-23T01:19:13.891Z,23.27
2019-01-23T01:24:20.320Z,24.53
2019-01-23T01:29:26.217Z,25.03
2019-01-23T01:34:32.665Z,24.07
2019-01-23T01:39:38.660Z,23.67
2019-01-23T01:44:44.512Z,24.93
2019-01-23T01:49:49.155Z,23.50
2019-01-23T01:54:57.431Z,24.00
2019-01-23T02:00:02.379Z,24.40
2019-01-23T02:05:07.392Z,24.33
2019-01-23T02:10:14.412Z,23.60
2019-01-23T02:15:20.201Z,24.03
2019-01-23T02:20:27.807Z,22.80
2019-01-23T02:25:34.091Z,22.37
2019-01-23T02:30:41.819Z,22.13
2019-01-23T02:35:48.303Z,22.27
2019-01-23T02:40:54.757Z,21.57
2019-01-23T02:46:01.366Z,21.80
2019-01-23T02:51:08.528Z,21.27
2019-01-23T02:56:17.306Z,20.90
2019-01-23T03:01:23.068Z,21.07
2019-01-23T03:06:28.574Z,22.23
2019-01-23T03:11:35.625Z,22.10
2019-01-23T03:16:41.703Z,21.77
2019-01-23T03:21:47.516Z,21.33
2019-01-23T03:26:54.077Z,23.40
2019-01-23T03:32:00.131Z,21.90
2019-01-23T03:37:06.318Z,22.67
2019-01-23T03:42:12.238Z,22.27
2019-01-23T03:47:18.678Z,20.90
2019-01-23T03:52:24.750Z,21.17
2019-01-23T03:57:29.955Z,21.97
2019-01-23T04:02:35.930Z,21.67
2019-01-23T04:07:41.565Z,23.10
2019-01-23T04:12:47.727Z,22.17
2019-01-23T04:17:53.104Z,20.97
2019-01-23T04:22:59.337Z,22.33
2019-01-23T04:28:04.820Z,22.43
2019-01-23T04:33:10.339Z,20.47
2019-01-23T04:38:16.282Z,22.10
2019-01-23T04:43:21.734Z,21.10
2019-01-23T04:48:27.357Z,21.87
2019-01-23T04:53:36.503Z,21.60
2019-01-23T04:58:42.448Z,22.40
2019-01-23T05:03:47.627Z,21.30
2019-01-23T05:08:55.043Z,20.37
2019-01-23T05:14:00.971Z,21.87
2019-01-23T05:19:08.547Z,20.33
2019-01-23T05:24:15.400Z,21.80
2019-01-23T05:29:23.938Z,21.53
2019-01-23T05:34:32.291Z,21.67
2019-01-23T05:39:37.625Z,21.17
2019-01-23T05:44:45.601Z,21.87
2019-01-23T05:49:53.098Z,22.17
2019-01-23T05:54:59.243Z,21.37
2019-01-23T06:00:05.356Z,21.90
2019-01-23T06:05:11.912Z,22.23
2019-01-23T06:10:18.016Z,21.27
2019-01-23T06:15:24.566Z,19.80
2019-01-23T06:20:30.024Z,20.93
2019-01-23T06:25:36.345Z,21.93
2019-01-23T06:30:43.539Z,20.60
2019-01-23T06:35:49.720Z,21.27
2019-01-23T06:40:54.961Z,22.50
2019-01-23T06:46:01.688Z,22.73
2019-01-23T06:51:07.177Z,21.70
2019-01-23T06:56:12.575Z,22.37
2019-01-23T07:01:18.534Z,22.03
2019-01-23T07:06:23.866Z,23.57
2019-01-23T07:11:29.980Z,22.47
2019-01-23T07:16:37.447Z,23.03
2019-01-23T07:21:42.930Z,23.87
2019-01-23T07:26:49.148Z,23.83
2019-01-23T07:31:54.521Z,24.30
2019-01-23T07:37:00.064Z,23.83
2019-01-23T07:42:05.849Z,26.07
2019-01-23T07:47:10.939Z,25.63
2019-01-23T07:52:16.473Z,25.40
2019-01-23T07:57:22.002Z,27.87
2019-01-23T08:02:28.188Z,25.70
2019-01-23T08:07:34.057Z,26.07
2019-01-23T08:12:39.893Z,27.27
2019-01-23T08:17:47.381Z,26.47
2019-01-23T08:22:53.021Z,27.20
2019-01-23T08:27:59.151Z,26.00
2019-01-23T08:33:06.506Z,26.57
2019-01-23T08:38:11.367Z,26.23
2019-01-23T08:43:17.587Z,26.27
2019-01-23T08:48:23.555Z,24.17
2019-01-23T08:53:29.297Z,26.00
2019-01-23T08:58:34.761Z,25.90
2019-01-23T09:03:41.709Z,25.67
2019-01-23T09:08:46.373Z,25.03
2019-01-23T09:13:52.038Z,25.10
2019-01-23T09:18:58.899Z,25.97
2019-01-23T09:24:04.788Z,25.33
2019-01-23T09:29:10.849Z,24.83
2019-01-23T09:35:06.561Z,24.60
2019-01-23T09:40:58.968Z,23.37
2019-01-23T09:46:25.158Z,24.60
2019-01-23T09:52:30.738Z,25.13
2019-01-23T09:57:38.603Z,24.40
2019-01-23T10:02:46.681Z,25.57
2019-01-23T10:07:53.883Z,24.40
2019-01-23T10:13:00.818Z,24.03
2019-01-23T10:18:07.318Z,25.03
2019-01-23T10:23:15.476Z,24.10
2019-01-23T10:28:22.441Z,23.97
2019-01-23T10:33:28.681Z,23.33
2019-01-23T10:38:36.462Z,23.63
2019-01-23T10:43:42.142Z,23.60
2019-01-23T10:48:47.980Z,25.60
2019-01-23T10:53:54.113Z,22.63
2019-01-23T10:59:01.062Z,24.67
2019-01-23T11:04:09.005Z,23.77
2019-01-23T11:09:15.747Z,23.90
2019-01-23T11:14:22.027Z,24.70
2019-01-23T11:19:29.632Z,24.07
2019-01-23T11:24:35.421Z,26.07
2019-01-23T11:29:41.359Z,24.50
2019-01-23T11:34:47.674Z,23.70
2019-01-23T11:39:54.549Z,24.60
2019-01-23T11:45:01.585Z,23.97
2019-01-23T11:50:12.940Z,25.07
2019-01-23T11:55:18.949Z,24.07
2019-01-23T12:00:27.166Z,24.43
2019-01-23T12:05:33.021Z,23.37
2019-01-23T12:10:38.630Z,23.83
2019-01-23T12:15:46.305Z,23.20
2019-01-23T12:20:56.213Z,23.50
2019-01-23T12:26:01.910Z,23.77
2019-01-23T12:31:07.560Z,23.17
2019-01-23T12:36:14.630Z,22.87
2019-01-23T12:41:20.977Z,23.73
2019-01-23T12:46:27.437Z,22.67
2019-01-23T12:51:34.617Z,24.50
2019-01-23T12:56:41.054Z,23.93
2019-01-23T13:01:47.100Z,22.97
2019-01-23T13:06:53.681Z,23.53
2019-01-23T13:12:00.752Z,24.63
2019-01-23T13:17:05.936Z,23.50
2019-01-23T13:22:11.927Z,24.00
2019-01-23T13:27:18.206Z,24.00
2019-01-23T13:32:26.315Z,24.43
2019-01-23T13:37:32.432Z,24.10
2019-01-23T13:42:39.264Z,23.57
2019-01-23T13:47:51.501Z,23.70
2019-01-23T13:52:57.145Z,23.07
2019-01-23T13:58:02.708Z,24.00
2019-01-23T14:03:08.469Z,23.60
2019-01-23T14:08:14.712Z,23.83
2019-01-23T14:13:21.041Z,23.07
2019-01-23T14:18:27.445Z,23.67
2019-01-23T14:23:33.324Z,24.27
2019-01-23T14:28:39.695Z,22.47
2019-01-23T14:33:46.017Z,23.67
2019-01-23T14:38:52.311Z,22.23
2019-01-23T14:43:59.714Z,22.87
2019-01-23T14:49:05.497Z,23.67
2019-01-23T14:54:12.353Z,23.23
2019-01-23T14:59:19.581Z,24.53
2019-01-23T15:04:26.022Z,23.77
2019-01-23T15:09:32.233Z,24.90
2019-01-23T15:14:37.711Z,24.00
2019-01-23T15:19:43.185Z,23.83
2019-01-23T15:24:48.943Z,24.33
2019-01-23T15:29:55.888Z,25.53
2019-01-23T15:35:01.542Z,26.07
2019-01-23T15:40:08.451Z,24.73
2019-01-23T15:45:15.412Z,25.50
2019-01-23T15:50:23.501Z,26.13
2019-01-23T15:55:34.396Z,25.23
2019-01-23T16:00:40.077Z,24.90
2019-01-23T16:05:46.835Z,24.57
2019-01-23T16:10:53.298Z,24.50
2019-01-23T16:15:58.794Z,23.87
2019-01-23T16:21:04.395Z,23.70
2019-01-23T16:26:10.130Z,24.10
2019-01-23T16:31:15.705Z,24.83
2019-01-23T16:36:22.210Z,23.97
2019-01-23T16:41:30.242Z,25.17
2019-01-23T16:46:35.743Z,25.87
2019-01-23T16:51:40.945Z,25.20
2019-01-23T16:56:47.652Z,24.27
2019-01-23T17:01:53.897Z,24.10
2019-01-23T17:06:59.519Z,24.70
2019-01-23T17:12:09.393Z,24.80
2019-01-23T17:17:14.425Z,23.93
2019-01-23T17:22:21.064Z,24.53
2019-01-23T17:27:28.868Z,24.20
2019-01-23T17:32:36.224Z,24.27
2019-01-23T17:37:43.025Z,24.77
2019-01-23T17:42:51.951Z,24.37
2019-01-23T17:47:59.301Z,23.97
2019-01-23T17:53:12.335Z,24.27
2019-01-23T17:58:19.327Z,24.60
2019-01-23T18:03:26.884Z,24.80
2019-01-23T18:08:33.915Z,26.33
2019-01-23T18:13:40.157Z,24.20
2019-01-23T18:18:48.242Z,23.87
2019-01-23T18:23:56.149Z,24.23
2019-01-23T18:29:03.341Z,23.87
2019-01-23T18:34:33.774Z,25.20
2019-01-23T18:40:04.603Z,24.77
2019-01-23T18:45:44.083Z,23.97
2019-01-23T18:51:09.893Z,23.90
2019-01-23T18:56:18.449Z,24.90
2019-01-23T19:01:24.442Z,24.20
2019-01-23T19:06:30.769Z,23.77
2019-01-23T19:11:38.812Z,25.63
2019-01-23T19:16:56.128Z,25.40
2019-01-23T19:22:05.122Z,24.20
2019-01-23T19:27:13.657Z,24.27
2019-01-23T19:32:20.970Z,24.07
2019-01-23T19:37:28.186Z,23.90
2019-01-23T19:42:35.162Z,24.50
2019-01-23T19:47:42.631Z,24.20
2019-01-23T19:52:52.150Z,24.10
2019-01-23T19:57:58.767Z,24.43
2019-01-23T20:03:05.547Z,24.63
2019-01-23T20:08:11.112Z,26.57
2019-01-23T20:13:17.387Z,25.93
2019-01-23T20:24:26.433Z,25.37
2019-01-23T20:29:34.815Z,25.57
2019-01-23T20:34:41.331Z,25.17
2019-01-23T20:39:50.371Z,25.73
2019-01-23T20:44:56.402Z,24.80
2019-01-23T20:50:02.094Z,26.17
2019-01-23T20:55:07.288Z,26.17
2019-01-23T21:00:16.278Z,25.70
2019-01-23T21:05:22.140Z,25.73
2019-01-23T21:10:29.533Z,25.77
2019-01-23T21:15:35.633Z,26.73
2019-01-23T21:20:44.177Z,25.40
2019-01-23T21:25:50.179Z,25.57
2019-01-23T21:30:57.462Z,25.57
2019-01-23T21:36:03.499Z,25.10
2019-01-23T21:41:10.166Z,25.90
2019-01-23T21:46:15.915Z,27.67
2019-01-23T21:51:22.504Z,27.50
2019-01-23T21:56:28.494Z,25.80
2019-01-23T22:01:35.129Z,27.33
2019-01-23T22:06:40.910Z,26.80
2019-01-23T22:11:46.617Z,27.63
2019-01-23T22:16:53.881Z,26.10
2019-01-23T22:21:59.609Z,26.77
2019-01-23T22:27:05.561Z,27.87
2019-01-23T22:32:15.332Z,27.40
2019-01-23T22:37:21.706Z,27.47
2019-01-23T22:42:27.288Z,27.00
2019-01-23T22:47:34.196Z,27.83
2019-01-23T22:52:58.100Z,27.03
2019-01-23T22:58:05.581Z,27.10
2019-01-23T23:03:12.570Z,27.63
2019-01-23T23:08:19.159Z,27.00
2019-01-23T23:13:27.188Z,27.17
2019-01-23T23:18:33.698Z,28.07
2019-01-23T23:23:40.334Z,28.37
2019-01-23T23:28:45.697Z,28.73
2019-01-23T23:33:52.524Z,28.40
2019-01-23T23:38:58.770Z,27.83
2019-01-23T23:44:04.620Z,29.00
2019-01-23T23:49:11.301Z,27.00
2019-01-23T23:54:17.549Z,27.73
2019-01-23T23:59:28.153Z,28.37
